Malden, West Virginia
Current Conditions -  °F | °C
As of 12:54 AM on Wednesday 26 Nov 2014 (Local Time) from KCRW Reporting Station
Overcast Overcast  
Wind Chill: 40°   Ceiling: 16000
Heat Index: 40°   Visibility: 10mi
Dew Point: 29°   Wind: 3mph
Humidity: 65%   Direction: 10°N
Pressure: 30.11"   Gusts: NA
Location:  38.3089°N, 81.5018°W
Report Text: KCRW 260554Z 01003KT 10SM OVC160 04/M02 A3011 RMK AO2 SLP196 T00441017 10089 20044 58011
Loading
Personal Weather Stations






























Interactive Weather Map New forecast layout! Learn more

10-Day Weather Forecast

Advertisements
Track Severe Weather on mobile